Time;durP1;ratioP1;P1;durP2;ratioP2;P2;SDS_P1;SDS_P2;PMS_P1;PMS_P2;Temp;Humidity;BMP_temperature;BMP_pressure;BME280_temperature;BME280_humidity;BME280_pressure;Samples;Min_cycle;Max_cycle;Signal;HPM_P1;HPM_P2
2022/09/06 00:00:36;;;;;;;5.55;4.80;;;22.80;71.90;;;;;;5079966;28;20191;-85
2022/09/06 00:03:02;;;;;;;4.95;4.47;;;22.70;72.10;;;;;;5081263;28;20265;-85
2022/09/06 00:05:29;;;;;;;5.53;5.03;;;22.70;71.70;;;;;;5074515;28;20222;-85
2022/09/06 00:08:01;;;;;;;4.95;4.55;;;22.70;71.90;;;;;;5084867;28;20670;-85
2022/09/06 00:10:28;;;;;;;5.53;4.60;;;22.60;72.30;;;;;;5081985;28;20194;-84
2022/09/06 00:12:54;;;;;;;5.00;4.70;;;22.50;73.10;;;;;;5082981;28;20660;-85
2022/09/06 00:15:21;;;;;;;6.82;4.50;;;22.40;73.00;;;;;;5080963;28;20579;-84
2022/09/06 00:17:47;;;;;;;5.82;4.45;;;22.40;73.20;;;;;;5081534;28;20597;-84
2022/09/06 00:20:14;;;;;;;5.35;4.85;;;22.40;73.90;;;;;;5081510;28;20194;-84
2022/09/06 00:22:40;;;;;;;5.03;4.63;;;22.40;74.50;;;;;;5082966;28;20181;-84
2022/09/06 00:25:06;;;;;;;5.38;4.70;;;22.20;75.40;;;;;;5083487;28;20237;-84
2022/09/06 00:27:33;;;;;;;5.15;4.65;;;22.30;74.50;;;;;;5083471;28;20210;-85
2022/09/06 00:29:59;;;;;;;5.00;4.50;;;22.20;75.20;;;;;;5083196;28;20698;-84
2022/09/06 00:32:25;;;;;;;5.35;4.38;;;22.10;76.70;;;;;;5083784;28;20187;-84
2022/09/06 00:34:51;;;;;;;5.05;4.55;;;22.20;77.50;;;;;;5080507;28;20207;-85
2022/09/06 00:37:16;;;;;;;4.85;4.43;;;22.30;76.30;;;;;;5081096;28;20204;-84
2022/09/06 00:39:42;;;;;;;7.00;4.78;;;22.30;76.40;;;;;;5081085;28;20561;-84
2022/09/06 00:42:09;;;;;;;5.05;4.53;;;22.50;75.00;;;;;;5085460;28;20191;-84
2022/09/06 00:44:35;;;;;;;4.70;4.35;;;22.50;74.90;;;;;;5086967;28;20235;-85
2022/09/06 00:47:01;;;;;;;6.63;5.15;;;22.50;74.50;;;;;;5099740;28;20191;-85
2022/09/06 00:49:33;;;;;;;6.78;6.18;;;22.60;74.60;;;;;;5071767;28;20204;-85
2022/09/06 00:52:04;;;;;;;7.78;6.97;;;22.40;75.00;;;;;;5079803;28;20191;-84
2022/09/06 00:54:31;;;;;;;7.20;6.50;;;22.30;76.40;;;;;;5080948;28;20194;-84
2022/09/06 00:56:57;;;;;;;7.10;6.45;;;22.30;76.90;;;;;;5081852;28;20206;-84
2022/09/06 00:59:25;;;;;;;5.35;4.85;;;22.20;77.20;;;;;;5076331;28;20188;-84
2022/09/06 01:01:51;;;;;;;6.15;5.55;;;21.90;80.60;;;;;;5082072;28;20785;-84
2022/09/06 01:04:17;;;;;;;4.85;4.53;;;21.70;80.30;;;;;;5080378;28;20571;-85
2022/09/06 01:07:11;;;;;;;6.07;5.00;;;21.60;81.00;;;;;;5082710;28;20217;-84
2022/09/06 01:09:48;;;;;;;5.03;4.63;;;21.00;87.90;;;;;;5078332;28;20194;-85
2022/09/06 01:12:36;;;;;;;7.88;5.28;;;20.70;90.40;;;;;;5072432;28;20240;-85
2022/09/06 01:15:11;;;;;;;6.15;5.75;;;20.70;89.60;;;;;;5081284;28;20223;-85
2022/09/06 01:17:54;;;;;;;5.80;5.40;;;20.80;87.60;;;;;;5080631;28;20205;-85
2022/09/06 01:20:33;;;;;;;6.38;5.60;;;20.90;85.90;;;;;;5074411;28;20200;-85
2022/09/06 01:23:23;;;;;;;7.00;6.32;;;20.80;85.70;;;;;;5077134;28;20177;-86
2022/09/06 01:25:55;;;;;;;6.78;5.80;;;20.80;88.10;;;;;;5080925;28;20726;-86
2022/09/06 01:28:27;;;;;;;9.88;5.75;;;20.90;88.00;;;;;;5079089;28;20193;-85
2022/09/06 01:31:17;;;;;;;6.97;5.88;;;20.90;85.70;;;;;;5064846;28;20254;-84
2022/09/06 01:33:53;;;;;;;5.65;5.15;;;21.10;88.10;;;;;;5093569;28;20194;-84
2022/09/06 01:36:23;;;;;;;7.90;5.57;;;21.20;90.40;;;;;;5081122;28;21186;-84
2022/09/06 01:38:49;;;;;;;5.97;5.40;;;21.40;90.30;;;;;;5094298;28;20250;-84
2022/09/06 01:41:15;;;;;;;7.25;5.45;;;21.60;88.70;;;;;;5092723;28;20592;-85
2022/09/06 01:43:44;;;;;;;6.35;5.75;;;21.70;88.20;;;;;;5092071;28;20259;-83
2022/09/06 01:46:28;;;;;;;7.40;5.53;;;21.70;87.70;;;;;;5083995;28;20206;-83
2022/09/06 01:48:54;;;;;;;10.52;5.78;;;21.70;88.50;;;;;;5089837;28;20183;-83
2022/09/06 01:51:28;;;;;;;6.05;5.50;;;21.70;88.90;;;;;;5081662;28;20202;-86
2022/09/06 01:54:13;;;;;;;6.18;5.57;;;21.70;89.00;;;;;;5078202;28;20194;-84
2022/09/06 01:57:09;;;;;;;6.50;5.90;;;21.80;90.10;;;;;;5077690;28;20215;-85
2022/09/06 01:59:40;;;;;;;5.30;4.85;;;21.80;89.40;;;;;;5101207;28;20205;-84
2022/09/06 02:02:22;;;;;;;5.70;5.20;;;21.80;88.50;;;;;;5080306;28;20717;-84
2022/09/06 02:05:01;;;;;;;5.57;5.07;;;21.90;88.90;;;;;;5076032;28;20211;-84
2022/09/06 02:07:29;;;;;;;6.50;6.00;;;21.80;88.30;;;;;;5082262;28;20793;-84
2022/09/06 02:10:12;;;;;;;6.45;5.93;;;21.60;89.00;;;;;;5075225;28;20240;-85
2022/09/06 02:12:42;;;;;;;6.97;6.03;;;21.70;90.10;;;;;;5079571;28;20239;-84
2022/09/06 02:15:15;;;;;;;6.72;6.13;;;21.60;89.60;;;;;;5077423;28;20203;-84
2022/09/06 02:17:51;;;;;;;6.10;5.60;;;21.60;90.50;;;;;;5082960;28;20211;-86
2022/09/06 02:20:28;;;;;;;6.78;6.18;;;21.70;91.40;;;;;;5080347;28;20262;-85
2022/09/06 02:22:56;;;;;;;9.20;6.28;;;21.70;89.20;;;;;;5081634;28;20247;-85
2022/09/06 02:25:40;;;;;;;6.90;6.18;;;21.60;91.00;;;;;;5079627;28;20207;-85
2022/09/06 02:28:07;;;;;;;6.47;5.88;;;21.30;92.80;;;;;;5081937;28;20183;-85
2022/09/06 02:30:39;;;;;;;7.10;5.60;;;21.40;92.80;;;;;;5080568;28;20179;-85
2022/09/06 02:33:12;;;;;;;6.10;5.70;;;21.50;93.30;;;;;;5081108;28;20199;-85
2022/09/06 02:35:50;;;;;;;6.07;5.68;;;21.50;91.80;;;;;;5074704;28;20260;-85
2022/09/06 02:38:17;;;;;;;6.32;5.72;;;21.60;91.40;;;;;;5085598;28;20187;-85
2022/09/06 02:40:44;;;;;;;8.38;5.70;;;21.70;90.90;;;;;;5084713;28;20198;-85
2022/09/06 02:43:09;;;;;;;5.05;4.75;;;21.80;90.50;;;;;;5078426;28;20184;-85
2022/09/06 02:45:35;;;;;;;7.30;6.00;;;21.90;89.30;;;;;;5081351;28;20208;-85
2022/09/06 02:48:01;;;;;;;7.15;6.18;;;22.00;90.10;;;;;;5080426;28;20184;-85
2022/09/06 02:50:26;;;;;;;8.77;5.85;;;21.80;90.60;;;;;;5079619;28;20191;-85
2022/09/06 02:53:03;;;;;;;6.63;6.07;;;21.70;91.50;;;;;;5083833;28;20293;-85
2022/09/06 02:55:28;;;;;;;6.10;5.63;;;21.60;92.00;;;;;;5080842;28;20199;-84
2022/09/06 02:57:54;;;;;;;6.78;6.20;;;21.70;91.80;;;;;;5096006;28;20215;-85
2022/09/06 03:00:19;;;;;;;6.18;5.65;;;21.80;91.30;;;;;;5086177;28;20229;-85
2022/09/06 03:02:45;;;;;;;6.47;5.88;;;21.60;92.00;;;;;;5081855;28;20244;-85
2022/09/06 03:05:11;;;;;;;6.18;5.68;;;21.70;91.70;;;;;;5073324;28;20217;-86
2022/09/06 03:07:36;;;;;;;6.63;5.53;;;21.70;90.20;;;;;;5083299;28;20209;-86
2022/09/06 03:10:02;;;;;;;5.43;5.00;;;21.70;89.10;;;;;;5083083;28;20194;-86
2022/09/06 03:12:28;;;;;;;6.45;5.85;;;21.80;89.60;;;;;;5079852;28;20179;-86
2022/09/06 03:14:54;;;;;;;6.35;5.85;;;21.90;89.60;;;;;;5079065;28;20211;-86
2022/09/06 03:17:19;;;;;;;6.80;6.20;;;21.80;90.90;;;;;;5079197;28;20208;-86
2022/09/06 03:19:45;;;;;;;6.43;5.82;;;21.60;92.20;;;;;;5082693;28;20197;-86
2022/09/06 03:22:11;;;;;;;6.30;5.80;;;21.40;92.20;;;;;;5078808;28;20231;-85
2022/09/06 03:24:37;;;;;;;6.07;5.68;;;21.50;92.30;;;;;;5084000;28;20183;-86
2022/09/06 03:27:02;;;;;;;5.93;5.40;;;21.50;91.70;;;;;;5079982;28;20230;-87
2022/09/06 03:29:28;;;;;;;6.50;5.90;;;21.50;91.80;;;;;;5086566;28;20168;-85
2022/09/06 03:31:53;;;;;;;6.03;5.45;;;21.50;92.20;;;;;;5091770;28;20207;-86
2022/09/06 03:34:19;;;;;;;6.43;5.32;;;21.40;92.40;;;;;;5097284;28;20188;-85
2022/09/06 03:36:45;;;;;;;5.80;5.40;;;21.00;93.70;;;;;;5090019;28;20212;-85
2022/09/06 03:39:10;;;;;;;6.35;5.88;;;20.60;95.80;;;;;;5084457;28;20195;-85
2022/09/06 03:41:37;;;;;;;5.80;5.40;;;20.50;96.40;;;;;;5082675;28;20280;-85
2022/09/06 03:44:03;;;;;;;5.70;5.20;;;20.60;96.60;;;;;;5079650;28;20209;-85
2022/09/06 03:46:29;;;;;;;6.07;5.60;;;20.40;96.30;;;;;;5081875;28;20228;-86
2022/09/06 03:48:56;;;;;;;6.50;5.70;;;20.30;97.10;;;;;;5075325;28;20213;-85
2022/09/06 03:51:22;;;;;;;6.10;5.60;;;20.40;97.10;;;;;;5080775;28;20295;-85
2022/09/06 03:53:48;;;;;;;6.40;5.90;;;20.60;95.80;;;;;;5081093;28;20194;-86
2022/09/06 03:56:14;;;;;;;6.18;5.68;;;20.80;94.70;;;;;;5084933;28;20336;-85
2022/09/06 03:58:40;;;;;;;6.20;5.60;;;20.80;94.00;;;;;;5081673;28;20206;-86
2022/09/06 04:01:09;;;;;;;7.68;5.68;;;20.90;93.60;;;;;;5079518;28;20345;-85
2022/09/06 04:03:35;;;;;;;6.20;5.65;;;20.80;93.60;;;;;;5073840;28;20172;-86
2022/09/06 04:06:01;;;;;;;6.13;5.63;;;20.80;93.80;;;;;;5084192;28;20215;-86
2022/09/06 04:08:27;;;;;;;5.70;5.30;;;20.90;93.60;;;;;;5083843;28;20187;-86
2022/09/06 04:10:54;;;;;;;6.53;6.03;;;21.00;92.80;;;;;;5100105;28;20218;-86
2022/09/06 04:13:20;;;;;;;7.00;6.30;;;21.10;92.10;;;;;;5087873;28;20183;-86
2022/09/06 04:15:47;;;;;;;5.65;5.25;;;21.00;92.40;;;;;;5082736;28;20208;-86
2022/09/06 04:18:13;;;;;;;6.22;5.72;;;20.80;91.80;;;;;;5082188;28;20669;-86
2022/09/06 04:20:38;;;;;;;6.45;5.85;;;20.60;92.80;;;;;;5079297;28;20179;-86
2022/09/06 04:23:04;;;;;;;5.68;5.18;;;20.50;93.80;;;;;;5074448;28;20373;-86
2022/09/06 04:25:30;;;;;;;6.20;5.57;;;20.30;92.50;;;;;;5083348;28;20211;-86
2022/09/06 04:27:55;;;;;;;5.85;4.90;;;20.30;93.00;;;;;;5078287;28;20202;-86
2022/09/06 04:30:21;;;;;;;6.00;5.20;;;20.30;93.10;;;;;;5080857;28;20202;-85
2022/09/06 04:32:47;;;;;;;5.35;4.97;;;20.50;92.60;;;;;;5074017;28;20298;-86
2022/09/06 04:35:13;;;;;;;8.20;5.95;;;20.60;92.80;;;;;;5075431;28;20251;-86
2022/09/06 04:37:39;;;;;;;6.15;5.53;;;20.70;92.10;;;;;;5080941;28;20214;-86
2022/09/06 04:40:06;;;;;;;5.70;5.25;;;20.70;91.40;;;;;;5080601;28;20207;-85
2022/09/06 04:42:31;;;;;;;7.63;5.57;;;20.80;91.00;;;;;;5066740;28;20194;-84
2022/09/06 04:44:57;;;;;;;7.25;5.50;;;20.70;91.20;;;;;;5049336;28;20216;-84
2022/09/06 04:47:24;;;;;;;6.05;5.55;;;20.60;92.00;;;;;;5048806;28;20187;-84
2022/09/06 04:49:50;;;;;;;5.50;5.10;;;20.60;92.30;;;;;;5076098;28;20191;-86
2022/09/06 04:52:16;;;;;;;4.53;4.22;;;20.70;91.10;;;;;;5076613;28;20194;-88
2022/09/06 04:54:42;;;;;;;5.95;5.40;;;20.70;90.60;;;;;;5077241;28;20187;-88
2022/09/06 04:57:08;;;;;;;6.15;5.55;;;20.70;91.40;;;;;;5079049;28;20215;-86
2022/09/06 04:59:34;;;;;;;5.72;5.15;;;20.70;90.40;;;;;;5076851;28;20193;-86
2022/09/06 05:02:00;;;;;;;5.80;5.30;;;20.60;90.60;;;;;;5076286;28;20234;-88
2022/09/06 05:04:26;;;;;;;6.28;5.40;;;20.50;90.00;;;;;;5078810;28;20180;-86
2022/09/06 05:07:01;;;;;;;5.35;4.85;;;20.60;90.30;;;;;;5081886;28;20275;-86
2022/09/06 05:09:27;;;;;;;5.40;5.00;;;20.70;90.70;;;;;;5088114;28;20197;-87
2022/09/06 05:11:53;;;;;;;6.18;5.00;;;20.70;89.40;;;;;;5075443;28;20242;-87
2022/09/06 05:14:18;;;;;;;5.47;4.95;;;20.70;89.00;;;;;;5076604;28;20652;-87
2022/09/06 05:16:45;;;;;;;5.60;5.10;;;20.50;89.20;;;;;;5078826;28;20241;-86
2022/09/06 05:19:11;;;;;;;6.30;4.60;;;20.50;88.50;;;;;;5056201;28;20187;-87
2022/09/06 05:21:37;;;;;;;5.35;4.88;;;20.50;88.90;;;;;;5080110;28;20567;-87
2022/09/06 05:24:03;;;;;;;5.10;4.70;;;20.60;89.60;;;;;;5078260;28;20300;-87
2022/09/06 05:26:28;;;;;;;5.57;5.18;;;20.60;89.80;;;;;;5078675;28;20225;-86
2022/09/06 05:28:54;;;;;;;6.10;5.60;;;20.50;88.50;;;;;;5082821;28;20221;-86
2022/09/06 05:31:26;;;;;;;5.43;5.10;;;20.50;88.90;;;;;;5067631;28;20267;-87
2022/09/06 05:33:53;;;;;;;6.25;5.57;;;20.50;89.10;;;;;;5072446;28;20345;-87
2022/09/06 05:36:18;;;;;;;5.90;5.38;;;20.50;89.80;;;;;;5079492;28;20219;-87
2022/09/06 05:38:44;;;;;;;6.28;5.75;;;20.50;90.20;;;;;;5083408;28;20192;-87
2022/09/06 05:41:10;;;;;;;5.95;5.55;;;20.40;90.20;;;;;;5078530;28;20190;-87
2022/09/06 05:43:36;;;;;;;5.80;5.32;;;20.40;90.20;;;;;;5076817;28;20277;-88
2022/09/06 05:46:02;;;;;;;5.53;5.03;;;20.50;90.50;;;;;;5072832;28;20242;-88
2022/09/06 05:48:27;;;;;;;5.43;5.03;;;20.60;90.40;;;;;;5077669;28;20187;-87
2022/09/06 05:51:08;;;;;;;5.70;5.20;;;20.60;89.60;;;;;;5076459;28;20199;-86
2022/09/06 05:53:36;;;;;;;6.10;5.60;;;20.60;90.10;;;;;;5062752;28;20190;-87
2022/09/06 05:56:03;;;;;;;8.35;5.72;;;20.60;90.20;;;;;;5078065;28;20245;-88
2022/09/06 05:58:29;;;;;;;5.40;5.00;;;20.60;91.10;;;;;;5079690;28;20177;-87
2022/09/06 06:01:06;;;;;;;5.78;5.25;;;20.60;90.90;;;;;;5077074;28;20180;-87
2022/09/06 06:03:32;;;;;;;6.00;5.60;;;20.60;90.60;;;;;;5079464;28;20238;-87
2022/09/06 06:05:58;;;;;;;6.07;5.50;;;20.60;91.00;;;;;;5074897;28;20728;-87
2022/09/06 06:08:23;;;;;;;6.10;5.15;;;20.70;90.60;;;;;;5080691;28;20179;-88
2022/09/06 06:10:49;;;;;;;6.43;5.93;;;20.80;90.20;;;;;;5075547;28;20648;-85
2022/09/06 06:13:15;;;;;;;6.43;5.93;;;20.80;90.70;;;;;;5077525;28;20186;-88
2022/09/06 06:15:40;;;;;;;6.35;5.35;;;20.80;91.60;;;;;;5077198;28;20206;-88
2022/09/06 06:18:06;;;;;;;6.00;5.50;;;20.90;91.40;;;;;;5075396;28;20240;-87
2022/09/06 06:20:32;;;;;;;7.20;6.03;;;21.00;91.30;;;;;;5075347;28;20248;-89
2022/09/06 06:22:58;;;;;;;7.93;6.50;;;21.00;92.50;;;;;;5074674;28;20187;-89
2022/09/06 06:25:26;;;;;;;6.22;5.72;;;20.80;93.80;;;;;;5094441;28;20229;-90
2022/09/06 06:27:52;;;;;;;7.97;6.55;;;20.70;94.00;;;;;;5080352;28;20254;-89
2022/09/06 06:30:17;;;;;;;7.18;5.80;;;20.70;94.30;;;;;;5077040;28;20287;-89
2022/09/06 06:32:43;;;;;;;7.88;6.55;;;20.90;94.30;;;;;;5081135;28;20282;-90
2022/09/06 06:35:09;;;;;;;7.20;6.50;;;20.90;94.70;;;;;;5079602;28;20289;-89
2022/09/06 06:37:35;;;;;;;7.63;6.93;;;21.00;94.90;;;;;;5083480;28;20207;-89
2022/09/06 06:40:00;;;;;;;7.10;6.50;;;20.90;96.50;;;;;;5079992;28;20191;-89
2022/09/06 06:42:26;;;;;;;7.40;6.65;;;20.80;97.00;;;;;;5076886;28;20195;-89
2022/09/06 06:44:52;;;;;;;8.48;7.05;;;20.60;98.00;;;;;;5079387;28;20225;-89
2022/09/06 06:47:19;;;;;;;8.68;7.93;;;20.60;97.90;;;;;;5072411;28;20648;-89
2022/09/06 06:49:44;;;;;;;13.98;7.95;;;20.60;97.60;;;;;;5076092;28;20198;-89
2022/09/06 06:52:10;;;;;;;13.32;8.20;;;20.80;97.70;;;;;;5077609;28;20323;-88
2022/09/06 06:54:36;;;;;;;8.73;7.05;;;20.80;97.70;;;;;;5079227;28;20183;-89
2022/09/06 06:57:03;;;;;;;8.18;7.15;;;20.80;97.60;;;;;;5078002;28;20211;-90
2022/09/06 06:59:30;;;;;;;9.32;8.63;;;20.90;98.10;;;;;;5072870;28;20270;-89
2022/09/06 07:01:56;;;;;;;8.30;7.57;;;20.90;99.50;;;;;;5076673;28;20796;-89
2022/09/06 07:04:21;;;;;;;8.45;7.55;;;20.80;99.10;;;;;;5073594;28;20274;-89
2022/09/06 07:06:49;;;;;;;7.57;6.97;;;20.80;99.40;;;;;;5075584;28;20230;-90
2022/09/06 07:09:17;;;;;;;9.13;8.38;;;21.10;98.00;;;;;;5076136;28;20194;-91
2022/09/06 07:11:43;;;;;;;9.15;8.45;;;21.30;98.40;;;;;;5081355;28;20187;-90
2022/09/06 07:14:08;;;;;;;9.68;8.90;;;21.30;98.60;;;;;;5075971;28;20295;-90
2022/09/06 07:16:34;;;;;;;10.00;9.20;;;21.20;99.00;;;;;;5074593;28;20223;-90
2022/09/06 07:19:00;;;;;;;10.70;9.68;;;21.10;99.50;;;;;;5081724;28;20183;-90
2022/09/06 07:21:26;;;;;;;10.95;10.00;;;21.10;99.50;;;;;;5076098;28;20670;-89
2022/09/06 07:23:53;;;;;;;12.13;9.93;;;21.10;99.90;;;;;;5076884;28;20182;-89
2022/09/06 07:26:21;;;;;;;10.57;9.55;;;21.20;99.40;;;;;;5079719;28;20368;-88
2022/09/06 07:28:47;;;;;;;10.13;9.32;;;21.30;99.20;;;;;;5086344;28;20256;-89
2022/09/06 07:31:13;;;;;;;10.27;9.38;;;21.30;99.90;;;;;;5078947;28;20223;-89
2022/09/06 07:33:39;;;;;;;9.43;8.63;;;21.50;98.90;;;;;;5079964;28;20264;-89
2022/09/06 07:36:06;;;;;;;10.15;9.35;;;21.80;98.30;;;;;;5078675;28;20640;-89
2022/09/06 07:38:33;;;;;;;10.02;9.02;;;21.70;97.80;;;;;;5075949;28;20186;-89
2022/09/06 07:41:09;;;;;;;11.68;10.25;;;21.80;96.60;;;;;;5074450;28;20180;-89
2022/09/06 07:43:35;;;;;;;10.52;9.55;;;21.80;96.70;;;;;;5077231;28;20562;-85
2022/09/06 07:46:08;;;;;;;10.45;9.65;;;21.90;97.40;;;;;;5083098;28;20207;-87
2022/09/06 07:48:36;;;;;;;9.68;8.77;;;22.20;97.00;;;;;;5084798;28;20182;-86
2022/09/06 07:51:13;;;;;;;10.43;9.23;;;22.30;96.00;;;;;;5079457;28;20206;-89
2022/09/06 07:53:40;;;;;;;9.93;9.07;;;22.50;95.20;;;;;;5081802;28;20178;-90
2022/09/06 07:56:08;;;;;;;9.80;8.63;;;22.50;94.70;;;;;;5076585;28;20310;-89
2022/09/06 07:58:34;;;;;;;10.25;9.25;;;22.50;94.90;;;;;;5077914;28;20179;-90
2022/09/06 08:01:35;;;;;;;10.07;9.20;;;22.60;94.60;;;;;;5079085;28;20893;-88
2022/09/06 08:04:19;;;;;;;9.55;8.85;;;22.50;94.50;;;;;;5065063;28;20216;-88
2022/09/06 08:06:47;;;;;;;10.15;9.35;;;22.20;95.30;;;;;;5079391;28;20226;-89
2022/09/06 08:09:13;;;;;;;9.07;8.30;;;22.20;96.00;;;;;;5078164;28;20695;-88
2022/09/06 08:11:39;;;;;;;9.65;8.82;;;22.30;95.80;;;;;;5077657;28;20278;-88
2022/09/06 08:14:07;;;;;;;9.98;9.27;;;22.40;95.50;;;;;;5080860;28;20262;-89
2022/09/06 08:16:35;;;;;;;9.23;8.43;;;22.50;95.40;;;;;;5080517;28;20211;-88
2022/09/06 08:19:03;;;;;;;9.40;8.60;;;22.70;94.30;;;;;;5064415;28;20179;-89
2022/09/06 08:21:31;;;;;;;9.57;8.68;;;22.70;94.40;;;;;;5074124;28;20233;-88
2022/09/06 08:24:08;;;;;;;9.32;8.60;;;22.80;93.50;;;;;;5076767;28;20530;-89
2022/09/06 08:26:41;;;;;;;10.05;8.82;;;22.90;92.20;;;;;;5077148;28;20203;-88
2022/09/06 08:29:08;;;;;;;8.68;7.90;;;22.90;91.60;;;;;;5085834;28;20203;-88
2022/09/06 08:31:37;;;;;;;9.88;8.98;;;23.00;91.20;;;;;;5091711;28;20188;-88
2022/09/06 08:34:03;;;;;;;9.77;8.98;;;23.10;90.30;;;;;;5078798;28;20232;-88
2022/09/06 08:36:29;;;;;;;9.52;8.63;;;23.10;88.40;;;;;;5072566;28;20625;-88
2022/09/06 08:39:04;;;;;;;8.70;7.95;;;23.00;89.80;;;;;;5080103;28;20179;-88
2022/09/06 08:41:36;;;;;;;9.15;8.35;;;23.00;87.70;;;;;;5074268;28;20182;-88
2022/09/06 08:44:06;;;;;;;9.02;7.93;;;23.10;87.50;;;;;;5076610;28;20192;-88
2022/09/06 08:46:38;;;;;;;9.63;8.65;;;23.10;88.90;;;;;;5076510;28;20934;-89
2022/09/06 08:49:05;;;;;;;8.75;7.95;;;23.00;88.40;;;;;;5079486;28;20237;-89
2022/09/06 08:52:06;;;;;;;8.27;7.63;;;23.10;87.70;;;;;;5076098;28;20184;-88
2022/09/06 08:54:37;;;;;;;9.13;8.32;;;23.40;85.70;;;;;;5077386;28;20218;-89
2022/09/06 08:57:40;;;;;;;8.90;7.88;;;23.50;84.00;;;;;;5076957;28;20202;-88
2022/09/06 09:00:10;;;;;;;8.60;7.90;;;23.60;83.70;;;;;;5076878;28;20199;-88
2022/09/06 09:02:50;;;;;;;10.35;7.65;;;23.80;82.20;;;;;;5076550;28;20556;-88
2022/09/06 09:05:21;;;;;;;8.77;8.00;;;24.00;81.30;;;;;;5073672;28;20198;-88
2022/09/06 09:07:57;;;;;;;9.45;8.52;;;23.90;80.90;;;;;;5076078;28;20194;-88
2022/09/06 09:10:43;;;;;;;8.95;7.55;;;23.80;82.90;;;;;;5075758;28;20675;-88
2022/09/06 09:13:23;;;;;;;7.53;6.88;;;23.70;82.60;;;;;;5079752;28;20194;-88
2022/09/06 09:15:48;;;;;;;7.72;7.10;;;23.70;83.80;;;;;;5072688;28;20315;-88
2022/09/06 09:18:20;;;;;;;8.30;7.45;;;23.80;82.80;;;;;;5078442;28;20204;-88
2022/09/06 09:20:46;;;;;;;9.25;8.40;;;24.00;79.30;;;;;;5081707;28;20183;-88
2022/09/06 09:23:11;;;;;;;8.00;7.40;;;24.10;80.10;;;;;;5080598;28;20191;-88
2022/09/06 09:25:39;;;;;;;8.85;7.38;;;24.30;79.40;;;;;;5073018;28;20575;-88
2022/09/06 09:28:13;;;;;;;7.88;7.28;;;24.40;78.70;;;;;;5071262;28;20185;-88
2022/09/06 09:30:51;;;;;;;7.80;7.20;;;24.30;78.00;;;;;;5073122;28;20190;-88
2022/09/06 09:33:24;;;;;;;9.10;8.20;;;24.60;76.90;;;;;;5072041;28;20199;-88
2022/09/06 09:35:51;;;;;;;8.25;7.45;;;24.80;76.70;;;;;;5079328;28;20260;-88
2022/09/06 09:38:24;;;;;;;8.63;7.90;;;25.10;75.90;;;;;;5067762;28;20211;-87
2022/09/06 09:40:53;;;;;;;8.50;7.82;;;25.30;76.10;;;;;;5057074;28;20179;-88
2022/09/06 09:43:41;;;;;;;8.85;8.15;;;25.40;76.10;;;;;;5079015;28;20186;-87
2022/09/06 09:46:27;;;;;;;10.98;7.88;;;25.40;76.60;;;;;;5065756;28;20205;-88
2022/09/06 09:49:11;;;;;;;8.45;7.65;;;25.40;77.10;;;;;;5067643;28;20174;-87
2022/09/06 09:51:57;;;;;;;8.35;7.55;;;25.40;75.70;;;;;;5074954;28;20202;-88
2022/09/06 09:54:31;;;;;;;8.55;7.93;;;25.50;77.10;;;;;;5064504;28;20193;-87
2022/09/06 09:56:57;;;;;;;7.85;7.22;;;25.70;76.00;;;;;;5071592;28;20245;-87
2022/09/06 09:59:30;;;;;;;8.55;7.70;;;25.70;75.30;;;;;;5061336;28;20238;-88
2022/09/06 10:02:02;;;;;;;8.85;7.95;;;25.70;78.10;;;;;;5070720;28;20174;-88
2022/09/06 10:04:37;;;;;;;8.60;7.70;;;25.80;75.20;;;;;;5067000;28;20207;-88
2022/09/06 10:07:24;;;;;;;8.45;7.53;;;25.80;77.20;;;;;;5053325;28;20206;-87
2022/09/06 10:09:58;;;;;;;9.20;7.70;;;25.90;75.90;;;;;;5080312;28;20190;-87
2022/09/06 10:12:33;;;;;;;8.85;7.15;;;26.00;75.90;;;;;;5074972;28;20189;-88
2022/09/06 10:14:59;;;;;;;8.13;7.18;;;26.10;76.40;;;;;;5067227;28;20204;-87
2022/09/06 10:17:29;;;;;;;8.77;7.28;;;26.20;75.10;;;;;;5079837;28;20248;-88
2022/09/06 10:19:56;;;;;;;8.88;7.95;;;26.10;74.50;;;;;;5078098;28;20571;-88
2022/09/06 10:22:27;;;;;;;8.30;7.60;;;25.90;76.60;;;;;;5067335;28;20233;-88
2022/09/06 10:25:11;;;;;;;8.98;8.07;;;25.90;78.30;;;;;;5067270;28;20203;-88
2022/09/06 10:27:58;;;;;;;7.95;6.60;;;26.20;76.20;;;;;;5076179;28;20445;-87
2022/09/06 10:30:23;;;;;;;10.75;7.57;;;26.50;76.70;;;;;;5069746;28;20194;-89
2022/09/06 10:33:07;;;;;;;9.85;7.53;;;26.70;74.70;;;;;;5081480;28;20187;-89
2022/09/06 10:35:39;;;;;;;8.93;6.95;;;27.00;74.30;;;;;;5079246;28;20203;-87
2022/09/06 10:38:17;;;;;;;8.18;6.82;;;27.20;73.20;;;;;;5082247;28;20664;-86
2022/09/06 10:40:54;;;;;;;12.10;7.80;;;27.70;68.00;;;;;;5082603;28;20202;-87
2022/09/06 10:43:20;;;;;;;8.13;7.32;;;27.80;66.90;;;;;;5084265;28;20187;-87
2022/09/06 10:46:01;;;;;;;6.93;6.22;;;27.60;68.80;;;;;;5077946;28;20220;-87
2022/09/06 10:48:45;;;;;;;10.05;7.22;;;27.50;67.90;;;;;;5083242;28;20195;-87
2022/09/06 10:51:17;;;;;;;8.75;6.32;;;27.30;68.30;;;;;;5065236;28;20188;-87
2022/09/06 10:53:50;;;;;;;9.38;6.07;;;27.50;67.80;;;;;;5071792;28;20654;-88
2022/09/06 10:56:46;;;;;;;8.13;5.95;;;27.60;65.10;;;;;;5074097;28;20243;-89
2022/09/06 10:59:19;;;;;;;7.25;5.50;;;27.70;65.40;;;;;;5072724;28;20228;-89
2022/09/06 11:02:00;;;;;;;6.18;5.53;;;27.90;65.30;;;;;;5078537;28;20690;-91
2022/09/06 11:04:41;;;;;;;6.60;5.47;;;28.00;64.30;;;;;;5077563;28;20183;-91
2022/09/06 11:07:33;;;;;;;6.93;6.25;;;28.40;60.50;;;;;;5077377;28;20278;-91
2022/09/06 11:10:17;;;;;;;10.25;5.72;;;28.50;60.10;;;;;;5100380;28;20250;-93
2022/09/06 11:13:07;;;;;;;7.43;5.97;;;28.70;60.30;;;;;;5074569;28;20821;-92
2022/09/06 11:15:49;;;;;;;7.10;5.30;;;28.70;59.80;;;;;;5077551;28;20207;-90
2022/09/06 11:18:20;;;;;;;5.93;5.35;;;28.90;60.30;;;;;;5069562;28;20207;-87
2022/09/06 11:21:21;;;;;;;7.78;5.22;;;29.10;55.90;;;;;;5080009;28;20186;-87
2022/09/06 11:24:14;;;;;;;12.25;5.60;;;29.20;54.50;;;;;;5073457;28;20207;-88
2022/09/06 11:27:01;;;;;;;7.38;5.07;;;29.50;54.60;;;;;;5044021;28;20717;-88
2022/09/06 11:29:29;;;;;;;5.97;4.97;;;29.90;51.20;;;;;;5063103;28;20206;-88
2022/09/06 11:32:01;;;;;;;6.07;5.30;;;30.10;52.00;;;;;;5067831;28;20191;-88
2022/09/06 11:34:36;;;;;;;6.88;5.55;;;30.20;51.60;;;;;;5067088;28;20191;-88
2022/09/06 11:37:06;;;;;;;6.15;5.10;;;30.10;51.00;;;;;;5079104;28;20206;-88
2022/09/06 11:39:41;;;;;;;6.60;5.47;;;30.10;50.90;;;;;;5080485;28;20175;-88
2022/09/06 11:42:08;;;;;;;6.45;5.40;;;29.90;50.90;;;;;;5073509;28;20188;-87
2022/09/06 11:44:49;;;;;;;5.93;5.30;;;29.90;50.50;;;;;;5084741;28;20218;-87
2022/09/06 11:47:44;;;;;;;6.32;5.00;;;30.10;51.60;;;;;;5075109;28;20243;-87
2022/09/06 11:50:27;;;;;;;7.20;4.80;;;30.30;50.70;;;;;;5079675;28;20233;-86
2022/09/06 11:53:05;;;;;;;6.20;5.00;;;30.30;50.90;;;;;;5074558;28;20189;-86
2022/09/06 11:55:34;;;;;;;6.28;4.72;;;31.00;48.30;;;;;;5066803;28;20279;-88
2022/09/06 11:58:03;;;;;;;5.60;5.10;;;30.70;45.90;;;;;;5073144;28;20581;-87
2022/09/06 12:00:31;;;;;;;8.45;5.28;;;30.80;46.90;;;;;;5081814;28;20256;-88
2022/09/06 12:02:57;;;;;;;7.03;5.18;;;31.20;46.30;;;;;;5065570;28;20197;-88
2022/09/06 12:05:28;;;;;;;4.85;4.45;;;31.10;46.00;;;;;;5069992;28;20215;-88
2022/09/06 12:08:23;;;;;;;7.95;5.03;;;30.70;46.90;;;;;;5072850;28;20270;-88
2022/09/06 12:10:56;;;;;;;5.93;5.30;;;31.40;46.90;;;;;;5073155;28;20190;-88
2022/09/06 12:13:51;;;;;;;7.10;5.00;;;31.80;45.60;;;;;;5073705;28;20191;-88
2022/09/06 12:16:17;;;;;;;6.43;5.13;;;31.60;45.40;;;;;;5061642;28;20511;-88
2022/09/06 12:18:46;;;;;;;5.68;5.03;;;31.90;43.60;;;;;;5060312;28;20183;-88
2022/09/06 12:21:30;;;;;;;5.78;4.88;;;31.50;44.40;;;;;;5061262;28;20222;-88
2022/09/06 12:23:56;;;;;;;7.38;5.10;;;31.60;45.80;;;;;;5060646;28;20674;-88
2022/09/06 12:26:46;;;;;;;10.05;5.68;;;31.20;45.40;;;;;;5076483;28;20211;-87
2022/09/06 12:29:12;;;;;;;8.55;5.25;;;31.70;43.30;;;;;;5083633;28;20727;-87
2022/09/06 12:31:41;;;;;;;5.60;5.10;;;31.70;43.50;;;;;;5069305;28;20187;-88
2022/09/06 12:34:17;;;;;;;6.88;5.05;;;32.00;42.90;;;;;;5072229;28;20506;-87
2022/09/06 12:36:57;;;;;;;5.90;5.03;;;32.00;43.30;;;;;;5078058;28;20556;-87
2022/09/06 12:39:23;;;;;;;6.97;5.18;;;32.00;42.00;;;;;;5072728;28;20261;-88
2022/09/06 12:41:54;;;;;;;5.50;4.80;;;32.00;41.00;;;;;;5080465;28;20172;-88
2022/09/06 12:44:42;;;;;;;8.88;5.50;;;32.40;40.50;;;;;;5081004;28;20191;-87
2022/09/06 12:47:21;;;;;;;6.20;5.40;;;32.30;41.10;;;;;;5070141;28;20769;-88
2022/09/06 12:49:46;;;;;;;7.95;4.70;;;31.70;42.30;;;;;;5081405;28;20243;-87
2022/09/06 12:52:18;;;;;;;5.68;5.07;;;32.00;41.00;;;;;;5082390;28;20263;-86
2022/09/06 12:54:49;;;;;;;5.40;4.85;;;32.60;41.50;;;;;;5084578;28;20194;-85
2022/09/06 12:57:22;;;;;;;5.63;5.10;;;33.10;37.90;;;;;;5082148;28;20209;-85
2022/09/06 12:59:57;;;;;;;5.78;5.15;;;33.20;39.00;;;;;;5071031;28;20192;-85
2022/09/06 13:02:41;;;;;;;6.68;5.90;;;33.20;39.10;;;;;;5081065;28;20181;-86
2022/09/06 13:05:10;;;;;;;6.00;5.40;;;33.20;39.00;;;;;;5080770;28;20199;-85